Time;durP1;ratioP1;P1;durP2;ratioP2;P2;SDS_P1;SDS_P2;PMS_P1;PMS_P2;Temp;Humidity;BMP_temperature;BMP_pressure;BME280_temperature;BME280_humidity;BME280_pressure;Samples;Min_cycle;Max_cycle;Signal;HPM_P1;HPM_P2
2022/03/04 00:00:35;;;;;;;19.13;14.03;;;;;;;0.32;64.66;100386.72;5051912;28;20294;-60
2022/03/04 00:03:01;;;;;;;20.47;13.43;;;;;;;0.24;64.70;100385.94;5072176;28;20578;-60
2022/03/04 00:05:26;;;;;;;18.47;13.67;;;;;;;0.27;65.41;100387.59;5071136;28;20207;-60
2022/03/04 00:07:52;;;;;;;20.20;13.70;;;;;;;0.13;65.44;100390.25;5072078;28;20204;-60
2022/03/04 00:10:18;;;;;;;20.50;13.00;;;;;;;0.10;65.96;100392.78;5064403;28;20237;-60
2022/03/04 00:12:43;;;;;;;18.53;13.67;;;;;;;-0.05;66.92;100399.63;5071081;28;20172;-60
2022/03/04 00:15:09;;;;;;;17.70;13.63;;;;;;;0.00;67.15;100394.53;5054630;28;20178;-60
2022/03/04 00:17:34;;;;;;;19.17;13.03;;;;;;;-0.05;67.35;100397.09;5052059;28;20271;-60
2022/03/04 00:19:59;;;;;;;18.50;13.60;;;;;;;-0.09;67.74;100397.13;5061765;28;20581;-60
2022/03/04 00:22:25;;;;;;;19.07;13.70;;;;;;;-0.13;67.80;100395.47;5077904;28;20232;-60
2022/03/04 00:24:50;;;;;;;19.10;13.70;;;;;;;-0.14;68.12;100391.25;5072243;28;20628;-60
2022/03/04 00:27:15;;;;;;;19.13;13.50;;;;;;;-0.19;67.82;100398.84;5071652;28;20657;-62
2022/03/04 00:29:41;;;;;;;20.50;14.27;;;;;;;-0.27;68.33;100403.97;5071449;28;20247;-60
2022/03/04 00:32:07;;;;;;;21.17;14.10;;;;;;;-0.17;68.64;100394.63;5015975;28;20225;-59
2022/03/04 00:34:32;;;;;;;19.73;13.70;;;;;;;-0.22;68.27;100397.19;5071039;28;20180;-63
2022/03/04 00:36:57;;;;;;;20.30;13.43;;;;;;;-0.24;68.31;100401.41;5070336;28;20192;-60
2022/03/04 00:39:23;;;;;;;26.03;13.27;;;;;;;-0.21;67.98;100405.59;5071307;28;20292;-59
2022/03/04 00:41:48;;;;;;;20.43;13.33;;;;;;;-0.30;68.89;100398.06;5060765;28;20241;-59
2022/03/04 00:44:14;;;;;;;18.73;13.93;;;;;;;-0.35;69.24;100398.94;5069092;28;20224;-59
2022/03/04 00:46:39;;;;;;;18.50;14.27;;;;;;;-0.53;70.36;100402.38;5072011;28;20520;-60
2022/03/04 00:49:05;;;;;;;22.37;14.60;;;;;;;-0.41;70.90;100400.66;5071847;28;20243;-61
2022/03/04 00:51:30;;;;;;;18.80;12.93;;;;;;;-0.48;70.54;100399.84;5063554;28;20239;-61
2022/03/04 00:53:55;;;;;;;22.10;13.67;;;;;;;-0.50;70.65;100406.59;5075988;28;20358;-60
2022/03/04 00:56:21;;;;;;;18.97;14.17;;;;;;;-0.46;71.02;100409.94;5070511;28;20572;-60
2022/03/04 00:58:46;;;;;;;20.43;13.77;;;;;;;-0.48;70.57;100404.91;5070127;28;20584;-60
2022/03/04 01:01:12;;;;;;;21.80;14.27;;;;;;;-0.45;70.76;100404.03;5060948;28;20296;-59
2022/03/04 01:03:38;;;;;;;19.73;13.63;;;;;;;-0.43;70.34;100399.84;5071250;28;20272;-59
2022/03/04 01:06:05;;;;;;;20.17;14.23;;;;;;;-0.53;71.22;100402.38;5068801;28;20208;-59
2022/03/04 01:08:30;;;;;;;18.57;14.00;;;;;;;-0.49;71.34;100403.22;5063703;28;20274;-61
2022/03/04 01:10:56;;;;;;;17.23;14.00;;;;;;;-0.54;71.36;100392.28;5068589;28;20250;-60
2022/03/04 01:13:23;;;;;;;21.63;14.43;;;;;;;-0.55;71.45;100403.25;5070493;28;20535;-60
2022/03/04 01:15:49;;;;;;;21.70;13.73;;;;;;;-0.59;71.75;100399.06;5070599;28;20186;-58
2022/03/04 01:18:15;;;;;;;18.50;13.53;;;;;;;-0.68;71.98;100389.81;5071579;28;20176;-59
2022/03/04 01:20:41;;;;;;;19.83;13.97;;;;;;;-0.80;72.90;100393.22;5063464;28;20346;-61
2022/03/04 01:23:06;;;;;;;18.10;13.70;;;;;;;-0.82;73.39;100384.78;5082088;28;20274;-59
2022/03/04 01:25:32;;;;;;;21.27;14.40;;;;;;;-0.91;73.67;100384.84;5071210;28;20183;-59
2022/03/04 01:27:58;;;;;;;21.93;14.80;;;;;;;-0.96;73.80;100389.06;5069296;28;20179;-60
2022/03/04 01:30:23;;;;;;;17.90;13.97;;;;;;;-0.94;74.48;100377.25;5064243;28;20238;-60
2022/03/04 01:32:48;;;;;;;19.00;13.43;;;;;;;-0.95;74.27;100380.66;5070575;28;20187;-60
2022/03/04 01:35:14;;;;;;;19.77;13.97;;;;;;;-0.92;74.43;100383.16;5071590;28;20239;-59
2022/03/04 01:37:41;;;;;;;19.50;13.80;;;;;;;-0.94;74.43;100373.06;5070755;28;20234;-59
2022/03/04 01:40:08;;;;;;;19.60;14.47;;;;;;;-1.09;74.81;100381.50;5061618;28;20203;-60
2022/03/04 01:42:34;;;;;;;19.23;14.50;;;;;;;-1.02;74.69;100372.22;5074270;28;20181;-60
2022/03/04 01:45:00;;;;;;;19.60;14.43;;;;;;;-1.02;74.96;100378.13;5073922;28;20739;-60
2022/03/04 01:47:25;;;;;;;23.47;16.50;;;;;;;-0.95;74.51;100370.53;5064313;28;20276;-61
2022/03/04 01:49:51;;;;;;;20.10;14.73;;;;;;;-0.85;74.36;100375.53;5073930;28;20659;-59
2022/03/04 01:52:16;;;;;;;20.17;14.60;;;;;;;-0.89;74.56;100368.00;5080776;28;20247;-59
2022/03/04 01:54:41;;;;;;;21.93;14.57;;;;;;;-0.99;75.03;100368.00;5073736;28;20185;-60
2022/03/04 01:57:07;;;;;;;21.97;15.00;;;;;;;-1.12;75.30;100373.09;5075265;28;20295;-60
2022/03/04 01:59:32;;;;;;;22.77;15.47;;;;;;;-1.01;74.95;100379.78;5073111;28;20180;-59
2022/03/04 02:01:57;;;;;;;21.40;14.77;;;;;;;-0.85;73.79;100374.72;5063944;28;20590;-60
2022/03/04 02:04:23;;;;;;;20.17;15.00;;;;;;;-0.87;73.61;100372.19;5075011;28;20211;-60
2022/03/04 02:06:49;;;;;;;20.97;15.13;;;;;;;-0.85;74.06;100370.50;5065732;28;20190;-60
2022/03/04 02:09:15;;;;;;;24.63;15.53;;;;;;;-0.92;74.56;100376.41;5066872;28;20182;-60
2022/03/04 02:11:43;;;;;;;27.00;15.73;;;;;;;-0.94;75.10;100384.81;5057310;28;20238;-61
2022/03/04 02:14:09;;;;;;;22.87;16.27;;;;;;;-0.94;75.16;100378.09;5058020;28;20181;-60
2022/03/04 02:16:40;;;;;;;20.20;15.73;;;;;;;-0.99;75.33;100375.59;5070208;28;20188;-59
2022/03/04 02:19:05;;;;;;;22.60;15.73;;;;;;;-1.00;75.48;100385.69;5052166;28;20188;-61
2022/03/04 02:21:32;;;;;;;22.63;16.33;;;;;;;-1.00;75.18;100383.16;5056237;28;20307;-60
2022/03/04 02:23:57;;;;;;;20.57;15.13;;;;;;;-1.11;75.54;100375.63;5053195;28;20314;-60
2022/03/04 02:26:23;;;;;;;19.30;14.33;;;;;;;-1.10;75.73;100384.88;5062944;28;20304;-60
2022/03/04 02:28:50;;;;;;;21.43;16.57;;;;;;;-1.09;75.67;100383.19;5074157;28;20187;-60
2022/03/04 02:31:17;;;;;;;22.90;15.43;;;;;;;-1.14;75.93;100376.47;5065647;28;20226;-66
2022/03/04 02:33:43;;;;;;;22.40;15.43;;;;;;;-1.17;76.05;100378.16;5073201;28;20180;-59
2022/03/04 02:36:08;;;;;;;23.33;16.20;;;;;;;-1.16;75.84;100370.56;5072945;28;20435;-59
2022/03/04 02:38:34;;;;;;;20.10;15.40;;;;;;;-1.13;75.94;100377.28;5073934;28;20324;-59
2022/03/04 02:40:59;;;;;;;21.13;15.33;;;;;;;-1.25;76.62;100372.25;5063811;28;20223;-59
2022/03/04 02:43:25;;;;;;;22.23;15.90;;;;;;;-1.27;77.02;100369.75;5064182;28;20214;-60
2022/03/04 02:45:51;;;;;;;22.37;16.33;;;;;;;-1.34;76.98;100370.59;5074141;28;20192;-60
2022/03/04 02:48:17;;;;;;;21.90;16.17;;;;;;;-1.37;77.56;100370.63;5073837;28;20181;-60
2022/03/04 02:50:42;;;;;;;25.23;15.47;;;;;;;-1.39;77.27;100368.09;5068501;28;20476;-59
2022/03/04 02:53:07;;;;;;;23.07;17.07;;;;;;;-1.36;77.22;100368.06;5084078;28;20176;-60
2022/03/04 02:55:33;;;;;;;23.20;16.83;;;;;;;-1.33;77.14;100369.75;5073799;28;20613;-59
2022/03/04 02:57:58;;;;;;;21.37;15.83;;;;;;;-1.26;76.98;100375.66;5072271;28;20179;-59
2022/03/04 03:00:23;;;;;;;20.10;16.17;;;;;;;-1.34;77.63;100366.41;5062339;28;22547;-59
2022/03/04 03:02:48;;;;;;;22.70;16.83;;;;;;;-1.28;77.86;100369.75;5072827;28;20241;-60
2022/03/04 03:05:14;;;;;;;26.07;16.80;;;;;;;-1.35;77.66;100367.25;5073763;28;20673;-60
2022/03/04 03:07:40;;;;;;;20.67;15.27;;;;;;;-1.41;77.87;100374.81;5061648;28;20604;-60
2022/03/04 03:10:06;;;;;;;23.83;16.10;;;;;;;-1.43;78.27;100371.44;5052802;28;20267;-60
2022/03/04 03:12:32;;;;;;;22.37;15.90;;;;;;;-1.48;78.60;100370.63;5086915;28;20197;-60
2022/03/04 03:14:57;;;;;;;20.53;16.17;;;;;;;-1.54;78.72;100365.56;5053452;28;20411;-59
2022/03/04 03:17:23;;;;;;;21.77;16.50;;;;;;;-1.60;79.13;100360.53;5055390;28;20299;-59
2022/03/04 03:19:48;;;;;;;21.77;17.13;;;;;;;-1.65;79.60;100361.38;5058918;28;20178;-59
2022/03/04 03:22:16;;;;;;;21.30;16.43;;;;;;;-1.72;79.22;100359.69;5056126;28;20591;-60
2022/03/04 03:24:42;;;;;;;22.60;15.90;;;;;;;-1.74;79.53;100358.00;5060758;28;20215;-60
2022/03/04 03:27:08;;;;;;;23.50;17.80;;;;;;;-1.74;79.96;100355.50;5055062;28;20171;-59
2022/03/04 03:29:33;;;;;;;23.30;17.33;;;;;;;-1.77;80.36;100356.34;5058033;28;20669;-59
2022/03/04 03:31:58;;;;;;;20.83;15.80;;;;;;;-1.74;79.69;100360.53;5076897;28;20222;-60
2022/03/04 03:34:23;;;;;;;23.97;16.93;;;;;;;-1.70;79.63;100349.59;5073227;28;20189;-60
2022/03/04 03:36:49;;;;;;;29.47;18.20;;;;;;;-1.77;79.84;100355.47;5067377;28;20652;-61
2022/03/04 03:39:14;;;;;;;23.00;17.53;;;;;;;-1.83;79.73;100357.16;5058854;28;20198;-60
2022/03/04 03:41:39;;;;;;;25.60;18.10;;;;;;;-1.82;80.15;100358.00;5063119;28;20557;-60
2022/03/04 03:44:05;;;;;;;25.20;17.73;;;;;;;-1.83;80.08;100362.19;5071917;28;20177;-59
2022/03/04 03:46:30;;;;;;;23.50;17.13;;;;;;;-1.79;80.27;100356.34;5070739;28;20274;-61
2022/03/04 03:48:55;;;;;;;23.70;17.57;;;;;;;-1.84;80.20;100354.66;5071679;28;20268;-60
2022/03/04 03:51:22;;;;;;;23.57;17.67;;;;;;;-1.98;81.12;100359.69;5061102;28;20235;-59
2022/03/04 03:53:47;;;;;;;23.50;16.43;;;;;;;-1.92;81.31;100361.34;5072191;28;20182;-61
2022/03/04 03:56:12;;;;;;;24.60;16.90;;;;;;;-1.97;80.98;100359.69;5072181;28;20424;-62
2022/03/04 03:58:38;;;;;;;22.83;17.47;;;;;;;-1.98;80.91;100357.16;5071761;28;20170;-60
2022/03/04 04:01:03;;;;;;;23.67;17.63;;;;;;;-2.01;81.55;100364.72;5059672;28;20235;-61
2022/03/04 04:03:29;;;;;;;23.57;17.53;;;;;;;-2.02;81.72;100368.06;5079481;28;20178;-59
2022/03/04 04:05:54;;;;;;;25.07;17.67;;;;;;;-2.20;82.48;100368.88;5068632;28;20204;-60
2022/03/04 04:08:19;;;;;;;26.27;19.07;;;;;;;-2.12;83.11;100377.31;5054840;28;20181;-60
2022/03/04 04:10:44;;;;;;;24.57;18.07;;;;;;;-2.09;83.65;100379.81;5056812;28;20649;-60
2022/03/04 04:13:10;;;;;;;27.57;19.10;;;;;;;-1.59;82.62;100377.34;5077143;28;20272;-59
2022/03/04 04:15:35;;;;;;;28.03;19.63;;;;;;;-1.18;79.76;100373.94;5065522;28;20302;-59
2022/03/04 04:18:00;;;;;;;27.13;19.60;;;;;;;-0.92;77.71;100378.91;5069925;28;20269;-59
2022/03/04 04:20:26;;;;;;;26.27;18.93;;;;;;;-0.63;75.22;100382.19;5062847;28;20960;-60
2022/03/04 04:22:51;;;;;;;29.83;18.77;;;;;;;-0.48;73.83;100374.56;5046024;28;20244;-60
2022/03/04 04:25:16;;;;;;;22.77;17.97;;;;;;;-0.39;72.51;100383.78;5071374;28;20206;-60
2022/03/04 04:27:42;;;;;;;28.80;18.53;;;;;;;-0.27;71.80;100383.72;5070993;28;20196;-60
2022/03/04 04:30:07;;;;;;;23.53;17.97;;;;;;;-0.17;70.33;100380.28;5047025;28;20179;-60
2022/03/04 04:32:33;;;;;;;29.60;18.00;;;;;;;-0.10;69.81;100385.31;5052441;28;20189;-60
2022/03/04 04:34:58;;;;;;;30.03;18.73;;;;;;;-0.15;69.15;100390.41;5071349;28;20199;-61
2022/03/04 04:37:23;;;;;;;25.37;18.40;;;;;;;-0.15;69.09;100390.41;5070354;28;20231;-60
2022/03/04 04:39:49;;;;;;;24.77;17.57;;;;;;;-0.18;69.16;100388.72;5070053;28;20204;-59
2022/03/04 04:42:14;;;;;;;24.40;17.00;;;;;;;-0.16;68.84;100391.28;5059848;28;20232;-61
2022/03/04 04:44:39;;;;;;;29.43;19.30;;;;;;;-0.16;68.88;100393.78;5070031;28;20204;-60
2022/03/04 04:47:06;;;;;;;26.13;17.90;;;;;;;-0.10;68.59;100400.50;5069757;28;20180;-59
2022/03/04 04:49:36;;;;;;;25.20;17.53;;;;;;;-0.09;68.80;100399.66;5052667;28;20328;-59
2022/03/04 04:52:03;;;;;;;25.43;18.13;;;;;;;-0.02;68.49;100408.88;5043214;28;20235;-60
2022/03/04 04:54:28;;;;;;;27.97;17.43;;;;;;;-0.13;68.85;100405.59;5070014;28;20190;-60
2022/03/04 04:56:53;;;;;;;25.17;18.40;;;;;;;-0.10;68.80;100415.66;5069759;28;20185;-62
2022/03/04 04:59:19;;;;;;;24.93;18.40;;;;;;;-0.17;68.84;100408.09;5070479;28;20263;-60
2022/03/04 05:01:44;;;;;;;27.33;19.37;;;;;;;-0.11;68.78;100407.25;5060334;28;20248;-59
2022/03/04 05:04:09;;;;;;;25.57;18.80;;;;;;;-0.22;69.52;100407.28;5066880;28;20516;-60
2022/03/04 05:06:34;;;;;;;27.23;18.83;;;;;;;-0.20;69.39;100407.28;5069540;28;20184;-59
2022/03/04 05:09:00;;;;;;;23.53;17.80;;;;;;;-0.21;69.25;100403.94;5062081;28;20181;-60
2022/03/04 05:11:25;;;;;;;26.90;17.40;;;;;;;-0.18;69.44;100408.13;5065321;28;20716;-60
2022/03/04 05:13:51;;;;;;;25.87;19.00;;;;;;;-0.22;69.57;100406.47;5060954;28;20177;-61
2022/03/04 05:16:16;;;;;;;26.40;19.17;;;;;;;-0.22;69.83;100409.81;5053917;28;20271;-61
2022/03/04 05:18:41;;;;;;;25.33;19.37;;;;;;;-0.36;70.13;100407.38;5056863;28;20486;-61
2022/03/04 05:21:07;;;;;;;25.97;18.50;;;;;;;-0.45;70.75;100412.44;5066004;28;20238;-60
2022/03/04 05:26:16;;;;;;;24.70;18.03;;;;;;;-0.35;71.26;100411.59;5074060;28;20709;-61
2022/03/04 05:28:42;;;;;;;26.63;18.50;;;;;;;-0.34;71.20;100410.72;5072962;28;20214;-60
2022/03/04 05:31:07;;;;;;;25.33;18.17;;;;;;;-0.33;70.97;100414.94;5073107;28;20280;-60
2022/03/04 05:33:33;;;;;;;28.93;19.33;;;;;;;-0.46;71.21;100415.00;5073064;28;20210;-59
2022/03/04 05:35:59;;;;;;;26.93;19.53;;;;;;;-0.47;71.88;100419.22;5075023;28;20179;-60
2022/03/04 05:38:25;;;;;;;24.97;19.03;;;;;;;-0.49;72.18;100413.31;5065850;28;20299;-60
2022/03/04 05:40:50;;;;;;;27.57;19.93;;;;;;;-0.60;72.04;100420.09;5031965;28;20239;-59
2022/03/04 05:43:15;;;;;;;28.97;19.50;;;;;;;-0.55;72.51;100403.25;5073783;28;20251;-59
2022/03/04 05:45:40;;;;;;;28.07;18.17;;;;;;;-0.69;73.07;100410.88;5074417;28;20256;-59
2022/03/04 05:48:07;;;;;;;26.30;19.77;;;;;;;-0.71;73.42;100418.47;5072513;28;20237;-60
2022/03/04 05:50:32;;;;;;;27.93;20.03;;;;;;;-0.75;73.30;100416.78;5062140;28;20247;-60
2022/03/04 05:52:58;;;;;;;27.23;19.10;;;;;;;-0.77;73.25;100421.00;5073435;28;20232;-60
2022/03/04 05:55:23;;;;;;;24.47;18.93;;;;;;;-0.93;74.50;100420.19;5074107;28;20187;-59
2022/03/04 05:57:49;;;;;;;32.80;20.07;;;;;;;-0.88;74.82;100430.28;5073760;28;20218;-59
2022/03/04 06:00:14;;;;;;;29.93;20.53;;;;;;;-0.86;75.41;100439.53;5064233;28;20707;-59
2022/03/04 06:02:39;;;;;;;28.47;19.63;;;;;;;-0.83;75.27;100434.47;5088194;28;20266;-59
2022/03/04 06:05:05;;;;;;;28.17;18.90;;;;;;;-0.93;75.83;100435.34;5072985;28;20298;-60
2022/03/04 06:07:33;;;;;;;27.17;18.83;;;;;;;-0.85;75.59;100440.38;5057063;28;20634;-59
2022/03/04 06:09:59;;;;;;;29.93;20.80;;;;;;;-0.82;75.41;100440.34;5059102;28;20212;-59
2022/03/04 06:12:24;;;;;;;28.63;19.27;;;;;;;-0.78;75.59;100449.63;5076233;28;20294;-60
2022/03/04 06:14:50;;;;;;;29.33;20.20;;;;;;;-0.74;75.26;100442.91;5074300;28;20173;-60
2022/03/04 06:17:16;;;;;;;26.90;19.70;;;;;;;-0.83;75.47;100448.81;5072838;28;20844;-59
2022/03/04 06:19:42;;;;;;;24.47;19.17;;;;;;;-0.78;75.82;100452.16;5057441;28;20639;-60
2022/03/04 06:22:07;;;;;;;29.37;20.17;;;;;;;-0.67;75.46;100460.56;5059335;28;20220;-59
2022/03/04 06:24:32;;;;;;;28.50;20.27;;;;;;;-0.68;75.10;100463.09;5035942;28;20203;-60
2022/03/04 06:26:58;;;;;;;27.83;19.97;;;;;;;-0.57;75.09;100475.66;5052374;28;20203;-60
2022/03/04 06:29:23;;;;;;;31.83;20.40;;;;;;;-0.63;75.09;100471.50;5052984;28;20180;-60
2022/03/04 06:31:49;;;;;;;25.97;19.13;;;;;;;-0.61;75.19;100474.00;5057495;28;20232;-60
2022/03/04 06:34:14;;;;;;;28.50;21.00;;;;;;;-0.46;74.87;100479.00;5055418;28;20177;-60
2022/03/04 06:36:40;;;;;;;29.03;20.13;;;;;;;-0.47;74.74;100473.97;5053819;28;20196;-59
2022/03/04 06:39:06;;;;;;;27.10;19.30;;;;;;;-0.38;74.70;100472.25;5060983;28;20220;-60
2022/03/04 06:41:31;;;;;;;26.07;19.70;;;;;;;-0.39;74.37;100479.84;5052919;28;20234;-63
2022/03/04 06:43:56;;;;;;;29.57;20.57;;;;;;;-0.27;74.68;100486.53;5073196;28;20276;-61
2022/03/04 06:46:22;;;;;;;29.67;20.60;;;;;;;-0.17;74.07;100486.50;5073114;28;20223;-59
2022/03/04 06:48:47;;;;;;;31.50;20.90;;;;;;;-0.10;73.57;100489.00;5072910;28;20697;-60
2022/03/04 06:51:13;;;;;;;29.03;20.77;;;;;;;-0.14;72.91;100493.22;5072456;28;20314;-60
2022/03/04 06:53:38;;;;;;;28.97;21.37;;;;;;;0.11;73.23;100495.66;5079240;28;20195;-60
2022/03/04 06:56:04;;;;;;;27.83;19.33;;;;;;;0.32;72.04;100497.22;5073450;28;20226;-60
2022/03/04 06:58:29;;;;;;;25.90;19.00;;;;;;;0.71;70.87;100502.88;5072070;28;20188;-60
2022/03/04 07:00:55;;;;;;;28.33;19.00;;;;;;;1.29;67.99;100496.47;5068871;28;20223;-60
2022/03/04 07:03:20;;;;;;;30.50;20.20;;;;;;;2.06;65.00;100499.81;5051441;28;20602;-60
2022/03/04 07:05:46;;;;;;;27.90;19.90;;;;;;;2.53;62.01;100507.66;5072146;28;20208;-62
2022/03/04 07:08:12;;;;;;;23.93;19.07;;;;;;;2.03;61.80;100504.94;5071901;28;20182;-61
2022/03/04 07:10:39;;;;;;;26.77;20.07;;;;;;;2.08;61.97;100515.03;5058022;28;20221;-61
2022/03/04 07:13:05;;;;;;;27.90;18.93;;;;;;;2.94;59.45;100512.09;5066772;28;20200;-60
2022/03/04 07:15:31;;;;;;;25.70;19.43;;;;;;;3.38;56.24;100521.50;5071109;28;20171;-60
2022/03/04 07:17:56;;;;;;;26.93;19.63;;;;;;;3.99;55.09;100518.63;5071519;28;20214;-63
2022/03/04 07:20:21;;;;;;;28.20;19.23;;;;;;;4.60;52.36;100530.09;5059052;28;20205;-60
2022/03/04 07:22:47;;;;;;;27.30;20.37;;;;;;;5.26;50.17;100528.50;5055340;28;20235;-62
2022/03/04 07:25:15;;;;;;;21.67;18.90;;;;;;;5.85;48.09;100526.94;5071902;28;20189;-61
2022/03/04 07:27:41;;;;;;;26.57;19.20;;;;;;;5.09;49.91;100541.66;5071421;28;20384;-61
2022/03/04 07:30:12;;;;;;;21.30;18.20;;;;;;;4.68;50.67;100544.31;5061623;28;20183;-62
2022/03/04 07:32:42;;;;;;;23.80;19.70;;;;;;;4.74;51.36;100543.38;5086251;28;20207;-61
2022/03/04 07:35:09;;;;;;;22.90;19.20;;;;;;;4.79;51.04;100546.63;5062622;28;20221;-60
2022/03/04 07:37:36;;;;;;;23.93;20.43;;;;;;;4.89;50.51;100548.94;5071397;28;20580;-60
2022/03/04 07:40:03;;;;;;;25.63;19.80;;;;;;;4.64;51.36;100549.53;5071177;28;20284;-61
2022/03/04 07:42:29;;;;;;;24.97;20.77;;;;;;;4.81;50.34;100547.44;5070220;28;20198;-59
2022/03/04 07:44:54;;;;;;;23.33;19.50;;;;;;;4.39;51.89;100549.25;5071666;28;20209;-60
2022/03/04 07:47:19;;;;;;;26.27;20.53;;;;;;;3.68;53.77;100557.44;5072436;28;20259;-61
2022/03/04 07:49:45;;;;;;;27.83;20.50;;;;;;;3.06;55.81;100547.47;5073049;28;20182;-60
2022/03/04 07:52:10;;;;;;;25.77;20.83;;;;;;;2.94;57.54;100547.69;5078702;28;20406;-60
2022/03/04 07:54:36;;;;;;;25.93;21.57;;;;;;;3.01;57.48;100549.25;5072947;28;20616;-60
2022/03/04 07:57:01;;;;;;;28.23;21.93;;;;;;;2.86;57.63;100550.34;5065898;28;20262;-62
2022/03/04 07:59:27;;;;;;;29.93;23.03;;;;;;;2.76;58.21;100553.91;5062462;28;20295;-61
2022/03/04 08:01:52;;;;;;;32.80;22.30;;;;;;;3.11;57.97;100558.41;5032926;28;20231;-60
2022/03/04 08:04:18;;;;;;;36.93;23.10;;;;;;;2.84;58.50;100559.69;5062918;28;20206;-60
2022/03/04 08:06:43;;;;;;;29.13;21.73;;;;;;;2.46;59.32;100561.91;5064785;28;20222;-64
2022/03/04 08:09:09;;;;;;;26.83;21.30;;;;;;;2.05;61.08;100566.66;5071547;28;20194;-63
2022/03/04 08:11:34;;;;;;;33.87;22.43;;;;;;;2.04;61.11;100559.91;5072248;28;20246;-60
2022/03/04 08:14:00;;;;;;;31.90;22.73;;;;;;;2.19;61.45;100573.28;5071127;28;20638;-61
2022/03/04 08:16:25;;;;;;;35.40;24.83;;;;;;;2.13;61.43;100563.19;5057367;28;20659;-63
2022/03/04 08:18:52;;;;;;;37.87;25.70;;;;;;;2.07;60.88;100566.63;5065761;28;20243;-60
2022/03/04 08:21:17;;;;;;;40.55;29.00;;;;;;;2.03;61.40;100572.63;5063220;28;20449;-62
2022/03/04 08:23:43;;;;;;;33.20;25.13;;;;;;;2.02;62.13;100563.31;5073184;28;20594;-61
2022/03/04 08:26:09;;;;;;;31.57;22.27;;;;;;;2.03;61.75;100562.47;5070405;28;20193;-60
2022/03/04 08:28:35;;;;;;;34.97;24.83;;;;;;;1.94;62.07;100559.16;5060396;28;20222;-62
2022/03/04 08:31:00;;;;;;;38.57;25.80;;;;;;;2.00;62.19;100550.66;5031135;28;20584;-60
2022/03/04 08:33:27;;;;;;;39.27;24.83;;;;;;;1.94;62.77;100558.34;5051795;28;20962;-61
2022/03/04 08:35:52;;;;;;;43.07;25.73;;;;;;;1.96;62.94;100559.16;5052293;28;20196;-60
2022/03/04 08:38:18;;;;;;;36.77;25.77;;;;;;;1.94;62.71;100554.09;5068022;28;20657;-61
2022/03/04 08:40:43;;;;;;;36.83;25.83;;;;;;;2.08;62.62;100560.72;5061573;28;20224;-60
2022/03/04 08:43:09;;;;;;;37.60;26.60;;;;;;;2.26;62.29;100552.03;5070992;28;20527;-60
2022/03/04 08:45:34;;;;;;;36.30;24.63;;;;;;;2.32;61.64;100556.19;5068896;28;20282;-60
2022/03/04 08:48:06;;;;;;;36.30;25.27;;;;;;;2.17;61.66;100554.69;5069566;28;20235;-60
2022/03/04 08:50:32;;;;;;;30.47;20.37;;;;;;;2.21;62.26;100566.50;5061928;28;20266;-62
2022/03/04 08:52:57;;;;;;;34.43;25.23;;;;;;;2.18;62.21;100558.91;5083340;28;20185;-60
2022/03/04 08:55:22;;;;;;;35.80;25.57;;;;;;;2.31;61.89;100559.56;5071714;28;20181;-61
2022/03/04 08:57:48;;;;;;;33.17;24.30;;;;;;;2.29;62.19;100558.78;5071728;28;20189;-60
2022/03/04 09:00:15;;;;;;;33.27;25.43;;;;;;;2.30;62.08;100568.91;5058550;28;20171;-60
2022/03/04 09:02:41;;;;;;;36.47;24.97;;;;;;;2.24;61.87;100567.25;5070949;28;20590;-61
2022/03/04 09:05:07;;;;;;;35.33;22.87;;;;;;;2.48;61.24;100574.59;5069334;28;20197;-61
2022/03/04 09:07:33;;;;;;;31.97;23.50;;;;;;;2.30;61.88;100570.63;5066259;28;20170;-61
2022/03/04 09:09:58;;;;;;;35.33;24.60;;;;;;;2.40;61.30;100583.13;5070401;28;20188;-61
2022/03/04 09:12:24;;;;;;;33.40;25.40;;;;;;;2.55;61.62;100574.47;5054902;28;20688;-61
2022/03/04 09:14:49;;;;;;;36.33;24.37;;;;;;;2.87;60.40;100575.72;5062463;28;20188;-60
2022/03/04 09:17:15;;;;;;;37.43;24.47;;;;;;;3.45;58.53;100574.81;5071295;28;20637;-60
2022/03/04 09:19:40;;;;;;;35.67;25.20;;;;;;;4.58;54.66;100570.06;5070999;28;20183;-61
2022/03/04 09:22:05;;;;;;;35.53;24.37;;;;;;;5.95;49.67;100563.25;5076334;28;20934;-61
2022/03/04 09:24:31;;;;;;;31.00;24.70;;;;;;;6.36;48.39;100558.69;5070158;28;20199;-62
2022/03/04 09:26:56;;;;;;;29.33;24.33;;;;;;;7.83;45.41;100560.81;5071397;28;20179;-61
2022/03/04 09:29:21;;;;;;;43.77;26.07;;;;;;;8.29;43.43;100556.53;5070724;28;20256;-62
2022/03/04 09:31:47;;;;;;;33.27;25.83;;;;;;;7.94;43.83;100558.69;5047637;28;20229;-62
2022/03/04 09:34:12;;;;;;;31.37;25.00;;;;;;;8.55;42.92;100565.00;5051383;28;20170;-62
2022/03/04 09:36:38;;;;;;;27.67;24.10;;;;;;;9.35;40.85;100555.81;5049865;28;20535;-59
2022/03/04 09:39:04;;;;;;;31.07;25.93;;;;;;;10.04;39.47;100546.84;5058250;28;20229;-59
2022/03/04 09:41:30;;;;;;;27.73;24.90;;;;;;;9.31;40.08;100546.56;5049178;28;20225;-60
2022/03/04 09:43:56;;;;;;;30.10;26.43;;;;;;;8.07;42.27;100546.25;5064978;28;20179;-59
2022/03/04 09:46:22;;;;;;;30.47;27.17;;;;;;;7.24;44.56;100547.44;5065608;28;20287;-61
2022/03/04 09:48:49;;;;;;;30.03;25.50;;;;;;;7.96;44.05;100548.38;5070330;28;20200;-61
2022/03/04 09:51:15;;;;;;;28.33;25.30;;;;;;;9.15;41.03;100546.38;5062738;28;20694;-60
2022/03/04 09:53:43;;;;;;;29.17;25.53;;;;;;;8.93;41.06;100557.53;5067124;28;20176;-62
2022/03/04 09:56:09;;;;;;;29.07;25.13;;;;;;;8.62;40.94;100555.34;5060094;28;20584;-60
2022/03/04 09:58:35;;;;;;;32.43;29.10;;;;;;;8.76;41.16;100552.22;5067487;28;20410;-59
2022/03/04 10:01:01;;;;;;;29.98;25.33;;;;;;;8.51;41.97;100551.47;5051026;28;20789;-60
2022/03/04 10:03:29;;;;;;;26.20;22.80;;;;;;;8.61;41.01;100548.53;5078489;28;20279;-60
2022/03/04 10:05:56;;;;;;;28.63;25.03;;;;;;;8.98;40.99;100555.63;5073212;28;20224;-59
2022/03/04 10:08:22;;;;;;;29.98;26.70;;;;;;;10.45;38.27;100541.53;5071097;28;20414;-61
2022/03/04 10:10:49;;;;;;;30.73;25.00;;;;;;;11.07;37.25;100537.75;5066452;28;20236;-59
2022/03/04 10:13:15;;;;;;;31.77;25.47;;;;;;;9.46;39.30;100551.03;5062325;28;20640;-59
2022/03/04 10:15:53;;;;;;;28.67;24.37;;;;;;;9.63;38.97;100546.94;5072278;28;20199;-59
2022/03/04 10:18:25;;;;;;;28.17;24.77;;;;;;;9.07;39.87;100551.84;5072954;28;20249;-61
2022/03/04 10:20:50;;;;;;;27.63;24.47;;;;;;;9.24;39.97;100553.72;5066184;28;20273;-60
2022/03/04 10:23:19;;;;;;;28.40;25.40;;;;;;;9.59;39.13;100559.06;5083268;28;20189;-60
2022/03/04 10:25:47;;;;;;;30.17;25.90;;;;;;;8.68;41.18;100544.84;5065932;28;20208;-61
2022/03/04 10:28:15;;;;;;;29.77;25.63;;;;;;;9.42;40.29;100546.94;5063822;28;20169;-60
2022/03/04 10:30:48;;;;;;;30.37;26.17;;;;;;;9.11;40.65;100548.22;5068145;28;20215;-61
2022/03/04 10:33:28;;;;;;;29.67;26.47;;;;;;;8.14;42.20;100540.00;5069493;28;20177;-59
2022/03/04 10:36:12;;;;;;;31.20;26.53;;;;;;;7.62;43.40;100535.06;5073294;28;20180;-60
2022/03/04 10:38:39;;;;;;;33.87;25.47;;;;;;;6.95;46.41;100544.13;5071378;28;20223;-61
2022/03/04 10:41:21;;;;;;;28.23;24.63;;;;;;;6.12;47.42;100545.75;5062877;28;20231;-60
2022/03/04 10:43:46;;;;;;;36.10;26.83;;;;;;;5.59;48.82;100553.16;5071652;28;20775;-60
2022/03/04 10:46:13;;;;;;;33.13;26.40;;;;;;;5.22;49.80;100557.53;5072998;28;20212;-62
2022/03/04 10:48:38;;;;;;;33.83;26.13;;;;;;;5.23;50.34;100553.25;5073027;28;20267;-61
2022/03/04 10:51:06;;;;;;;37.70;27.10;;;;;;;5.33;50.20;100549.56;5071824;28;20642;-60
2022/03/04 10:53:33;;;;;;;35.37;26.53;;;;;;;4.86;51.38;100552.41;5072372;28;20202;-62
2022/03/04 10:56:04;;;;;;;32.63;25.60;;;;;;;4.73;52.42;100556.16;5073201;28;20265;-60
2022/03/04 10:58:39;;;;;;;38.07;26.90;;;;;;;4.66;52.89;100547.78;5072384;28;20282;-62
2022/03/04 11:01:18;;;;;;;36.20;25.73;;;;;;;4.80;52.88;100545.75;5061433;28;20246;-60
2022/03/04 11:03:43;;;;;;;37.20;26.47;;;;;;;4.93;52.52;100542.94;5073145;28;20642;-59
2022/03/04 11:06:14;;;;;;;36.57;26.07;;;;;;;5.03;51.58;100546.09;5072761;28;20208;-60
2022/03/04 11:08:42;;;;;;;35.50;25.53;;;;;;;5.01;52.09;100541.88;5072079;28;20194;-60